Time;durP1;ratioP1;P1;durP2;ratioP2;P2;SDS_P1;SDS_P2;PMS_P1;PMS_P2;Temp;Humidity;BMP_temperature;BMP_pressure;BME280_temperature;BME280_humidity;BME280_pressure;Samples;Min_cycle;Max_cycle;Signal;HPM_P1;HPM_P2
2022/08/23 00:02:14;;;;;;;9.33;7.15;;;;;;;15.88;100.00;100475.58;1738198;81;21047;-78
2022/08/23 00:04:42;;;;;;;8.75;7.35;;;;;;;15.88;100.00;100475.58;1738440;81;21039;-78
2022/08/23 00:07:13;;;;;;;8.08;7.28;;;;;;;15.93;100.00;100477.48;1739462;81;21132;-78
2022/08/23 00:09:41;;;;;;;9.38;7.28;;;;;;;15.94;100.00;100479.21;1739247;81;21244;-78
2022/08/23 00:12:16;;;;;;;8.43;6.95;;;;;;;15.94;100.00;100478.73;1753297;81;21026;-78
2022/08/23 00:14:51;;;;;;;9.25;6.90;;;;;;;15.92;100.00;100475.33;1751633;80;21058;-78
2022/08/23 00:17:19;;;;;;;8.65;7.22;;;;;;;15.91;100.00;100479.39;1745436;81;21609;-78
2022/08/23 00:19:46;;;;;;;8.65;7.53;;;;;;;15.90;100.00;100473.23;1742178;81;21115;-78
2022/08/23 00:22:15;;;;;;;9.20;7.30;;;;;;;15.90;100.00;100474.55;1745936;81;21547;-78
2022/08/23 00:24:43;;;;;;;7.42;6.72;;;;;;;15.92;100.00;100473.16;1760649;81;20996;-78
2022/08/23 00:27:15;;;;;;;9.60;7.15;;;;;;;15.93;100.00;100469.56;1738028;81;21004;-78
2022/08/23 00:29:47;;;;;;;8.63;7.05;;;;;;;15.93;100.00;100462.95;1738255;81;21441;-78
2022/08/23 00:32:19;;;;;;;10.20;6.80;;;;;;;15.93;100.00;100466.44;1747454;81;21151;-78
2022/08/23 00:34:47;;;;;;;9.00;7.00;;;;;;;15.94;100.00;100464.67;1737554;81;21086;-78
2022/08/23 00:37:16;;;;;;;10.05;6.83;;;;;;;15.94;100.00;100469.96;1739530;81;20989;-78
2022/08/23 00:39:44;;;;;;;8.43;6.83;;;;;;;15.93;100.00;100464.27;1739575;81;21013;-82
2022/08/23 00:48:11;;;;;;;10.13;6.80;;;;;;;15.95;100.00;100465.89;1756881;81;21454;-78
2022/08/23 00:50:59;;;;;;;10.55;6.80;;;;;;;15.95;100.00;100465.89;1738345;81;21091;-77
2022/08/23 00:53:32;;;;;;;8.50;7.25;;;;;;;15.94;100.00;100466.84;1743790;81;21110;-77
2022/08/23 00:56:04;;;;;;;8.48;7.08;;;;;;;15.92;100.00;100470.03;1751747;80;21098;-78
2022/08/23 00:58:32;;;;;;;8.78;7.37;;;;;;;15.92;100.00;100466.55;1754830;80;21478;-78
2022/08/23 01:01:02;;;;;;;10.82;7.78;;;;;;;15.92;100.00;100460.78;1754572;80;21522;-77
2022/08/23 01:03:33;;;;;;;10.20;6.97;;;;;;;15.94;100.00;100459.39;1768694;80;21020;-77
2022/08/23 01:06:11;;;;;;;7.67;6.72;;;;;;;15.94;100.00;100458.06;1764587;80;21081;-77
2022/08/23 01:08:41;;;;;;;9.53;7.45;;;;;;;15.96;100.00;100457.04;1772882;80;20996;-77
2022/08/23 01:11:11;;;;;;;;;;;;;;;15.97;100.00;100460.05;1757333;80;21133;-77
2022/08/23 01:13:52;;;;;;;7.80;7.00;;;;;;;15.99;100.00;100461.27;1755072;80;20142;-78
2022/08/23 01:16:24;;;;;;;8.60;7.55;;;;;;;16.00;100.00;100459.02;1754177;80;21032;-77
2022/08/23 01:18:53;;;;;;;8.73;7.83;;;;;;;16.04;100.00;100456.56;1754160;80;21091;-77
2022/08/23 01:21:28;;;;;;;8.73;7.78;;;;;;;16.05;100.00;100455.16;1754780;80;21048;-77
2022/08/23 01:24:00;;;;;;;8.58;7.28;;;;;;;16.08;100.00;100451.97;1754427;80;21922;-77
2022/08/23 01:26:30;;;;;;;10.40;7.58;;;;;;;16.08;100.00;100446.68;1732856;80;21108;-76
2022/08/23 01:28:57;;;;;;;9.68;7.42;;;;;;;16.07;100.00;100448.45;1732126;81;20922;-77
2022/08/23 01:31:24;;;;;;;8.58;7.17;;;;;;;16.08;100.00;100450.17;1755411;80;21048;-77
2022/08/23 01:33:59;;;;;;;8.35;6.83;;;;;;;16.08;100.00;100450.17;1754724;80;21023;-76
2022/08/23 01:36:27;;;;;;;7.42;6.72;;;;;;;16.08;100.00;100446.20;1754968;80;21120;-77
2022/08/23 01:38:54;;;;;;;8.18;7.03;;;;;;;16.11;100.00;100442.53;1751679;80;20996;-77
2022/08/23 01:41:22;;;;;;;10.60;7.37;;;;;;;16.10;100.00;100449.62;1754881;80;21052;-77
2022/08/23 01:43:50;;;;;;;13.80;7.70;;;;;;;16.10;100.00;100448.30;1755610;80;21040;-77
2022/08/23 01:46:22;;;;;;;10.63;7.10;;;;;;;16.10;100.00;100444.77;1775928;80;21023;-77
2022/08/23 01:48:50;;;;;;;;;;;;;;;16.09;100.00;100452.34;1757623;80;22110;-77
2022/08/23 01:51:20;;;;;;;9.95;7.12;;;;;;;16.10;100.00;100450.94;1755044;80;20201;-77
2022/08/23 01:53:47;;;;;;;;;;;;;;;16.09;100.00;100457.15;1757337;80;21051;-77
2022/08/23 01:56:21;;;;;;;9.98;7.05;;;;;;;16.11;100.00;100457.07;1754617;80;20210;-77
2022/08/23 01:58:48;;;;;;;8.88;6.90;;;;;;;16.12;100.00;100452.16;1754270;80;21011;-77
2022/08/23 02:01:17;;;;;;;9.45;7.22;;;;;;;16.12;100.00;100446.39;1754721;80;21155;-77
2022/08/23 02:03:45;;;;;;;9.30;7.05;;;;;;;16.11;100.00;100450.46;1754773;80;21517;-77
2022/08/23 02:06:12;;;;;;;9.25;7.03;;;;;;;16.09;100.00;100447.89;1757160;80;21058;-77
2022/08/23 02:11:29;;;;;;;9.13;6.55;;;;;;;16.10;100.00;100462.84;1762015;80;21014;-77
2022/08/23 02:13:59;;;;;;;8.58;6.72;;;;;;;16.11;100.00;100459.72;1781424;80;22030;-77
2022/08/23 02:16:34;;;;;;;11.40;6.30;;;;;;;16.12;100.00;100458.77;1786682;80;21040;-77
2022/08/23 02:19:05;;;;;;;9.98;6.35;;;;;;;16.12;100.00;100456.96;1772410;80;21056;-77
2022/08/23 02:21:33;;;;;;;8.28;6.75;;;;;;;16.15;100.00;100460.75;1781845;80;21024;-76
2022/08/23 02:24:14;;;;;;;8.50;6.40;;;;;;;16.14;100.00;100456.41;1787117;80;20993;-77
2022/08/23 02:26:46;;;;;;;7.40;6.25;;;;;;;16.15;100.00;100461.22;1782325;80;21294;-77
2022/08/23 02:29:16;;;;;;;8.40;6.08;;;;;;;16.13;100.00;100461.77;1770905;80;21048;-77
2022/08/23 02:31:44;;;;;;;8.38;6.53;;;;;;;16.17;100.00;100467.28;1759648;80;21007;-77
2022/08/23 02:34:14;;;;;;;7.70;6.10;;;;;;;16.18;100.00;100469.81;1769535;80;21079;-77
2022/08/23 02:36:42;;;;;;;;;;;;;;;16.16;100.00;100465.11;1788812;80;21287;-77
2022/08/23 02:39:12;;;;;;;7.95;6.00;;;;;;;16.19;100.00;100469.38;1767348;80;21256;-77
2022/08/23 02:41:40;;;;;;;8.38;6.33;;;;;;;16.17;100.00;100466.80;1787552;80;21027;-77
2022/08/23 02:44:09;;;;;;;7.70;6.60;;;;;;;16.19;100.00;100469.38;1778708;80;21558;-77
2022/08/23 02:46:38;;;;;;;8.43;5.75;;;;;;;16.17;100.00;100465.48;1775338;80;21019;-77
2022/08/23 02:49:06;;;;;;;8.30;6.70;;;;;;;16.18;100.00;100468.49;1780618;80;21541;-77
2022/08/23 02:51:33;;;;;;;9.45;6.50;;;;;;;16.18;100.00;100468.97;1773215;80;21080;-77
2022/08/23 02:54:00;;;;;;;7.42;5.85;;;;;;;16.17;100.00;100476.53;1782968;80;21087;-77
2022/08/23 02:56:28;;;;;;;8.10;6.28;;;;;;;16.18;100.00;100474.26;1742250;80;21022;-77
2022/08/23 02:58:55;;;;;;;9.23;6.00;;;;;;;16.18;100.00;100473.78;1732636;82;21586;-77
2022/08/23 03:01:31;;;;;;;7.35;6.20;;;;;;;16.21;100.00;100478.92;1735173;81;21057;-77
2022/08/23 03:04:01;;;;;;;7.03;6.33;;;;;;;16.21;100.00;100476.27;1737938;80;21133;-76
2022/08/23 03:06:29;;;;;;;7.62;6.62;;;;;;;16.22;100.00;100474.00;1711132;81;21961;-76
2022/08/23 03:08:57;;;;;;;7.10;6.25;;;;;;;16.25;100.00;100472.97;1710942;81;21011;-76
2022/08/23 03:11:25;;;;;;;7.05;5.85;;;;;;;16.27;100.00;100473.73;1736729;81;20999;-76
2022/08/23 03:13:55;;;;;;;7.53;5.72;;;;;;;16.25;100.00;100471.16;1756911;81;21005;-76
2022/08/23 03:16:23;;;;;;;7.25;6.45;;;;;;;16.25;100.00;100472.48;1741630;82;21174;-77
2022/08/23 03:18:51;;;;;;;10.08;6.47;;;;;;;16.25;100.00;100475.61;1746286;81;21408;-76
2022/08/23 03:21:20;;;;;;;8.20;6.80;;;;;;;16.27;100.00;100476.38;1737178;81;21006;-77
2022/08/23 03:23:48;;;;;;;7.40;6.22;;;;;;;16.27;100.00;100481.67;1711283;81;21579;-77
2022/08/23 03:26:16;;;;;;;7.78;6.40;;;;;;;16.26;100.00;100471.53;1710889;81;21106;-77
2022/08/23 03:28:44;;;;;;;7.62;6.55;;;;;;;16.26;100.00;100471.53;1684713;83;21270;-77
2022/08/23 03:31:15;;;;;;;8.83;6.58;;;;;;;16.28;100.00;100472.78;1744401;81;21017;-76
2022/08/23 03:33:48;;;;;;;8.95;6.00;;;;;;;16.26;100.00;100472.86;1757033;80;21036;-76
2022/08/23 03:36:15;;;;;;;7.70;6.28;;;;;;;16.27;100.00;100481.19;1735450;82;21615;-76
2022/08/23 03:38:42;;;;;;;7.37;5.85;;;;;;;16.27;100.00;100483.84;1742791;82;21114;-76
2022/08/23 03:41:11;;;;;;;6.60;5.87;;;;;;;16.30;100.00;100487.25;1756847;81;21994;-76
2022/08/23 03:43:38;;;;;;;6.70;5.62;;;;;;;16.30;100.00;100493.38;1730423;82;21031;-76
2022/08/23 03:46:06;;;;;;;10.50;6.47;;;;;;;16.30;100.00;100498.67;1756687;81;21056;-76
2022/08/23 03:48:36;;;;;;;8.68;6.37;;;;;;;16.32;100.00;100502.05;1694424;82;21104;-77
2022/08/23 03:51:04;;;;;;;9.08;6.22;;;;;;;16.34;100.00;100507.27;1729025;82;21064;-76
2022/08/23 03:53:31;;;;;;;8.65;6.00;;;;;;;16.36;100.00;100524.76;1739930;82;22027;-76
2022/08/23 03:55:58;;;;;;;8.40;6.53;;;;;;;16.34;100.00;100539.02;1734467;81;21510;-76
2022/08/23 03:58:26;;;;;;;12.50;7.10;;;;;;;16.31;100.00;100545.33;1761582;81;21056;-78
2022/08/23 04:00:54;;;;;;;11.45;6.70;;;;;;;16.30;100.00;100555.55;1765217;80;21024;-79
2022/08/23 04:03:21;;;;;;;9.03;6.50;;;;;;;16.32;100.00;100545.70;1745388;79;21060;-79
2022/08/23 04:05:58;;;;;;;7.47;5.80;;;;;;;16.30;100.00;100515.87;1749574;81;21448;-82
2022/08/23 04:08:25;;;;;;;12.35;6.00;;;;;;;16.27;100.00;100512.09;1749468;81;20959;-83
2022/08/23 04:10:54;;;;;;;5.42;4.10;;;;;;;16.28;100.00;100518.59;1761874;81;21021;-82
2022/08/23 04:13:21;;;;;;;13.20;6.08;;;;;;;16.28;100.00;100511.13;1756561;81;21036;-83
2022/08/23 04:15:49;;;;;;;14.45;6.10;;;;;;;16.24;100.00;100509.62;1750685;81;21083;-83
2022/08/23 04:18:17;;;;;;;8.78;5.72;;;;;;;16.17;100.00;100508.27;1761329;79;21116;-80
2022/08/23 04:20:47;;;;;;;8.25;5.45;;;;;;;16.05;100.00;100501.91;1758543;81;20993;-79
2022/08/23 04:23:17;;;;;;;7.60;5.90;;;;;;;16.02;100.00;100515.31;1766269;80;21008;-79
2022/08/23 04:25:46;;;;;;;7.30;5.53;;;;;;;15.99;100.00;100519.42;1754750;81;21015;-78
2022/08/23 04:28:14;;;;;;;6.97;5.65;;;;;;;15.99;100.00;100532.64;1746715;81;21109;-79
2022/08/23 04:30:43;;;;;;;7.62;5.35;;;;;;;15.99;100.00;100532.20;1755229;79;21088;-80
2022/08/23 04:33:11;;;;;;;8.23;6.35;;;;;;;15.98;100.00;100527.83;1761077;81;20987;-79
2022/08/23 04:35:40;;;;;;;8.25;5.60;;;;;;;15.99;100.00;100524.27;1752831;81;21477;-79
2022/08/23 04:38:08;;;;;;;6.20;4.78;;;;;;;16.03;100.00;100529.74;1769486;80;21099;-79
2022/08/23 04:43:20;;;;;;;6.72;4.78;;;;;;;16.04;100.00;100528.80;1765795;79;21163;-78
2022/08/23 04:45:48;;;;;;;8.63;4.90;;;;;;;16.06;100.00;100530.89;1755189;79;21489;-78
2022/08/23 04:48:17;;;;;;;7.33;5.40;;;;;;;16.07;100.00;100537.02;1763920;81;21012;-78
2022/08/23 04:50:45;;;;;;;6.40;5.08;;;;;;;16.09;100.00;100532.98;1770530;80;21468;-78
2022/08/23 04:53:18;;;;;;;9.60;5.92;;;;;;;16.10;100.00;100531.58;1770141;80;21035;-79
2022/08/23 04:55:51;;;;;;;10.25;5.70;;;;;;;16.13;100.00;100532.72;1749988;79;21950;-79
2022/08/23 04:58:19;;;;;;;8.55;6.47;;;;;;;16.14;100.00;100529.13;1770128;81;20973;-79
2022/08/23 05:00:51;;;;;;;6.58;5.65;;;;;;;16.16;100.00;100521.13;1755247;80;20992;-79
2022/08/23 05:03:20;;;;;;;7.92;5.95;;;;;;;16.14;100.00;100515.06;1744571;81;21467;-79
2022/08/23 05:05:47;;;;;;;6.55;5.90;;;;;;;16.17;100.00;100526.30;1718326;81;21528;-79
2022/08/23 05:08:15;;;;;;;7.15;6.25;;;;;;;16.17;100.00;100521.02;1770054;81;21115;-79
2022/08/23 05:10:43;;;;;;;10.28;6.35;;;;;;;16.15;100.00;100512.31;1745786;80;21047;-80
2022/08/23 05:13:10;;;;;;;7.12;6.40;;;;;;;16.12;100.00;100494.46;1762545;81;20985;-79
2022/08/23 05:15:38;;;;;;;8.43;7.03;;;;;;;16.11;100.00;100500.22;1770502;79;21422;-79
2022/08/23 05:18:05;;;;;;;8.28;7.35;;;;;;;16.10;100.00;100494.56;1759351;80;21638;-79
2022/08/23 05:20:33;;;;;;;7.47;6.30;;;;;;;16.10;100.00;100489.72;1770267;79;21079;-79
2022/08/23 05:23:01;;;;;;;7.97;6.05;;;;;;;16.09;100.00;100486.70;1757274;80;21098;-79
2022/08/23 05:25:51;;;;;;;6.33;5.72;;;;;;;16.08;100.00;100490.31;1746412;81;21033;-79
2022/08/23 05:28:33;;;;;;;7.17;6.47;;;;;;;16.06;100.00;100491.23;1765821;81;21036;-80
2022/08/23 05:31:05;;;;;;;6.62;6.03;;;;;;;16.09;100.00;100487.55;1750923;81;21137;-79
2022/08/23 05:33:35;;;;;;;5.73;5.23;;;;;;;16.12;100.00;100491.34;1746742;81;21143;-79
2022/08/23 05:36:04;;;;;;;6.92;5.72;;;;;;;16.12;100.00;100492.66;1770037;80;20980;-79
2022/08/23 05:38:32;;;;;;;6.60;6.00;;;;;;;16.14;100.00;100496.08;1767036;79;20959;-79
2022/08/23 05:41:01;;;;;;;6.40;5.72;;;;;;;16.17;100.00;100502.98;1762494;81;21011;-78
2022/08/23 05:43:29;;;;;;;6.53;5.83;;;;;;;16.16;100.00;100503.93;1764848;79;21077;-79
2022/08/23 05:46:09;;;;;;;7.07;6.27;;;;;;;16.16;100.00;100506.09;1767436;79;21126;-79
2022/08/23 05:48:41;;;;;;;6.15;4.83;;;;;;;16.17;100.00;100499.02;1763142;79;21004;-79
2022/08/23 05:51:18;;;;;;;5.97;4.60;;;;;;;16.22;100.00;100499.59;1764660;80;21027;-79
2022/08/23 05:53:47;;;;;;;5.58;4.75;;;;;;;16.27;100.00;100504.16;1764385;79;21070;-80
2022/08/23 05:56:23;;;;;;;6.30;4.58;;;;;;;16.28;100.00;100503.20;1761720;81;21146;-81
2022/08/23 05:58:54;;;;;;;5.00;4.60;;;;;;;16.30;100.00;100509.73;1762276;81;21244;-78
2022/08/23 06:01:22;;;;;;;5.25;4.75;;;;;;;16.32;100.00;100511.80;1762497;81;21035;-78
2022/08/23 06:03:50;;;;;;;;;;;;;;;16.38;100.00;100516.27;1764642;79;21042;-79
2022/08/23 06:06:20;;;;;;;5.72;3.95;;;;;;;16.42;100.00;100513.80;1762187;80;20197;-82
2022/08/23 06:08:47;;;;;;;3.85;3.47;;;;;;;16.46;100.00;100507.84;1762652;79;21039;-79
2022/08/23 06:11:20;;;;;;;3.92;3.12;;;;;;;16.47;100.00;100510.42;1763781;81;21980;-80
2022/08/23 06:13:55;;;;;;;3.58;2.42;;;;;;;16.49;100.00;100516.48;1762537;81;21505;-79
2022/08/23 06:16:28;;;;;;;2.35;2.15;;;;;;;16.50;100.00;100520.81;1762016;81;21612;-79
2022/08/23 06:18:56;;;;;;;2.47;1.82;;;;;;;16.52;100.00;100515.45;1740275;81;21166;-78
2022/08/23 06:21:32;;;;;;;2.62;1.67;;;;;;;16.53;100.00;100521.11;1742485;81;21062;-78
2022/08/23 06:24:00;;;;;;;1.85;1.47;;;;;;;16.56;100.00;100526.20;1761837;81;21825;-78
2022/08/23 06:26:31;;;;;;;2.05;1.22;;;;;;;16.62;100.00;100532.93;1762227;80;21579;-78
2022/08/23 06:29:05;;;;;;;2.35;1.00;;;;;;;16.67;100.00;100533.51;1763129;81;21436;-81
2022/08/23 06:31:45;;;;;;;3.02;1.20;;;;;;;16.72;100.00;100535.41;1760874;79;21007;-78
2022/08/23 06:34:25;;;;;;;1.47;0.80;;;;;;;16.76;100.00;100536.91;1761290;81;21008;-78
2022/08/23 06:36:59;;;;;;;1.92;1.17;;;;;;;16.77;100.00;100534.70;1762721;79;21207;-79
2022/08/23 06:39:45;;;;;;;0.72;0.72;;;;;;;16.76;100.00;100534.74;1763646;81;21087;-79
2022/08/23 06:42:31;;;;;;;0.80;0.80;;;;;;;16.77;100.00;100537.82;1762914;81;21048;-78
2022/08/23 06:44:59;;;;;;;1.30;0.98;;;;;;;16.78;100.00;100534.22;1763373;80;21778;-79
2022/08/23 06:47:29;;;;;;;1.22;1.12;;;;;;;16.77;100.00;100533.38;1758484;81;21027;-89
2022/08/23 06:49:56;;;;;;;1.60;1.50;;;;;;;16.79;100.00;100541.20;1763753;81;22039;-88
2022/08/23 06:52:27;;;;;;;2.90;1.57;;;;;;;16.80;100.00;100542.45;1759818;79;21035;-82
2022/08/23 06:55:01;;;;;;;1.65;1.55;;;;;;;16.80;100.00;100542.45;1759894;81;21008;-85
2022/08/23 06:57:33;;;;;;;1.98;1.65;;;;;;;16.82;100.00;100545.86;1761768;81;21066;-82
2022/08/23 07:00:12;;;;;;;2.05;1.85;;;;;;;16.85;100.00;100547.00;1759779;79;21702;-88
2022/08/23 07:02:56;;;;;;;2.80;2.60;;;;;;;16.88;100.00;100546.80;1760805;79;21157;-84
2022/08/23 07:05:25;;;;;;;3.83;3.40;;;;;;;16.90;100.00;100548.02;1734477;80;21039;-81
2022/08/23 07:07:54;;;;;;;3.70;3.33;;;;;;;16.90;100.00;100548.89;1761517;81;21023;-82
2022/08/23 07:10:21;;;;;;;4.97;3.45;;;;;;;16.91;100.00;100544.45;1764721;81;21054;-85
2022/08/23 07:12:48;;;;;;;3.85;3.40;;;;;;;16.92;100.00;100540.84;1764673;81;21536;-83
2022/08/23 07:15:17;;;;;;;4.83;4.40;;;;;;;16.94;100.00;100541.61;1763320;81;22026;-85
2022/08/23 07:17:46;;;;;;;6.47;4.80;;;;;;;16.97;100.00;100533.95;1764749;81;21682;-84
2022/08/23 07:20:13;;;;;;;5.33;4.83;;;;;;;17.01;100.00;100536.77;1765782;80;21031;-83
2022/08/23 07:22:43;;;;;;;5.42;4.87;;;;;;;17.04;100.00;100534.78;1763730;81;21059;-83
2022/08/23 07:25:11;;;;;;;5.92;5.42;;;;;;;17.09;100.00;100528.73;1758017;81;21038;-89
2022/08/23 07:27:39;;;;;;;6.45;5.90;;;;;;;17.13;100.00;100532.06;1746260;81;21170;-84
2022/08/23 07:30:08;;;;;;;7.40;6.30;;;;;;;17.16;100.00;100527.89;1748882;81;21074;-83
2022/08/23 07:32:37;;;;;;;;;;;;;;;17.20;100.00;100536.01;1753563;81;21106;-87
2022/08/23 07:35:21;;;;;;;7.42;6.65;;;;;;;17.26;100.00;100537.42;1751056;81;20435;-82
2022/08/23 07:37:49;;;;;;;7.45;6.67;;;;;;;17.29;100.00;100545.17;1777391;80;22444;-79
2022/08/23 07:40:17;;;;;;;7.65;7.03;;;;;;;17.31;100.00;100548.59;1771453;80;21129;-81
2022/08/23 07:42:45;;;;;;;7.83;7.12;;;;;;;17.33;100.00;100555.97;1712781;81;21077;-80
2022/08/23 07:45:13;;;;;;;7.83;7.12;;;;;;;17.35;100.00;100558.91;1764239;80;21039;-81
2022/08/23 07:47:42;;;;;;;8.80;7.97;;;;;;;17.36;100.00;100562.40;1764992;80;21019;-81
2022/08/23 07:50:10;;;;;;;9.38;7.83;;;;;;;17.34;100.00;100566.45;1780065;78;21062;-81
2022/08/23 07:52:37;;;;;;;8.50;7.70;;;;;;;17.33;100.00;100567.41;1752905;81;21564;-81
2022/08/23 07:55:05;;;;;;;8.63;7.50;;;;;;;17.33;100.00;100571.39;1764595;80;21094;-81
2022/08/23 07:57:43;;;;;;;10.75;9.00;;;;;;;17.34;100.00;100570.43;1741901;80;21067;-82
2022/08/23 08:00:12;;;;;;;9.00;8.03;;;;;;;17.33;100.00;100572.71;1762030;80;21103;-81
2022/08/23 08:02:41;;;;;;;8.88;8.03;;;;;;;17.33;100.00;100571.88;1760393;80;21367;-81
2022/08/23 08:05:10;;;;;;;9.50;8.23;;;;;;;17.32;100.00;100573.67;1758919;80;21086;-79
2022/08/23 08:07:37;;;;;;;10.00;8.60;;;;;;;17.33;100.00;100571.88;1764244;80;21063;-80
2022/08/23 08:10:06;;;;;;;10.95;9.78;;;;;;;17.35;100.00;100568.66;1758307;80;21550;-80
2022/08/23 08:12:34;;;;;;;11.05;9.95;;;;;;;17.38;100.00;100562.69;1758877;80;21031;-81
2022/08/23 08:15:03;;;;;;;11.00;9.90;;;;;;;17.41;100.00;100567.42;1754504;80;21536;-81
2022/08/23 08:17:32;;;;;;;;;;;;;;;17.44;100.00;100570.72;1760456;80;21727;-81
2022/08/23 08:20:09;;;;;;;10.85;9.85;;;;;;;17.47;100.00;100580.28;1756180;80;20201;-81
2022/08/23 08:22:38;;;;;;;11.48;10.28;;;;;;;17.49;100.00;100586.34;1760701;80;21493;-80
2022/08/23 08:25:11;;;;;;;11.22;9.93;;;;;;;17.51;100.00;100594.55;1766534;80;21528;-80
2022/08/23 08:27:41;;;;;;;11.55;10.35;;;;;;;17.53;100.00;100601.94;1760824;80;21688;-80
2022/08/23 08:30:13;;;;;;;11.28;10.15;;;;;;;17.54;100.00;100603.66;1762874;80;21124;-81
2022/08/23 08:32:42;;;;;;;13.00;11.25;;;;;;;17.55;100.00;100606.67;1718676;82;21042;-81
2022/08/23 08:35:10;;;;;;;13.48;11.45;;;;;;;17.58;100.00;100607.80;1735419;82;21026;-80
2022/08/23 08:37:38;;;;;;;11.95;10.78;;;;;;;17.63;100.00;100610.65;1722338;82;21050;-81
2022/08/23 08:40:07;;;;;;;12.47;10.88;;;;;;;17.62;100.00;100608.45;1758144;79;21042;-81
2022/08/23 08:43:05;;;;;;;12.45;11.15;;;;;;;17.64;100.00;100609.21;1760891;80;21748;-80
2022/08/23 08:46:08;;;;;;;12.88;11.00;;;;;;;17.68;100.00;100606.76;1730343;80;21066;-79
2022/08/23 08:48:43;;;;;;;13.62;11.33;;;;;;;17.69;100.00;100601.83;1759584;80;21560;-78
2022/08/23 08:51:20;;;;;;;12.35;11.00;;;;;;;17.72;100.00;100607.41;1762440;80;20976;-88
2022/08/23 08:53:50;;;;;;;11.70;10.53;;;;;;;17.73;100.00;100613.08;1744603;80;21062;-79
2022/08/23 08:56:27;;;;;;;12.80;11.50;;;;;;;17.74;100.00;100612.14;1757185;80;21210;-79
2022/08/23 08:59:05;;;;;;;13.53;11.45;;;;;;;17.76;100.00;100612.88;1778868;80;21555;-79
2022/08/23 09:01:36;;;;;;;12.18;10.98;;;;;;;17.77;100.00;100615.44;1738414;81;21715;-78
2022/08/23 09:04:05;;;;;;;13.45;11.83;;;;;;;17.79;100.00;100619.34;1739501;79;21063;-80
2022/08/23 09:06:44;;;;;;;15.10;12.28;;;;;;;17.79;100.00;100619.34;1745010;80;21106;-79
2022/08/23 09:09:29;;;;;;;15.65;12.43;;;;;;;17.80;100.00;100621.91;1754958;81;21136;-79
2022/08/23 09:12:17;;;;;;;13.85;12.43;;;;;;;17.83;100.00;100625.69;1755121;81;21541;-82
2022/08/23 09:15:03;;;;;;;17.70;12.98;;;;;;;17.87;100.00;100629.47;1752285;80;21122;-79
2022/08/23 09:17:48;;;;;;;16.15;13.20;;;;;;;17.89;100.00;100628.90;1746539;80;21684;-79
2022/08/23 09:20:19;;;;;;;18.73;13.40;;;;;;;17.91;100.00;100625.20;1774049;80;21031;-80
2022/08/23 09:22:54;;;;;;;15.75;14.15;;;;;;;17.94;100.00;100630.30;1768414;80;21237;-79
2022/08/23 09:25:24;;;;;;;16.27;14.60;;;;;;;17.93;100.00;100628.61;1789886;79;21044;-79
2022/08/23 09:27:56;;;;;;;16.07;14.38;;;;;;;17.93;100.00;100629.94;1766602;79;21457;-79
2022/08/23 09:30:44;;;;;;;15.93;14.30;;;;;;;17.95;100.00;100632.48;1790650;80;21678;-79
2022/08/23 09:33:22;;;;;;;18.90;15.58;;;;;;;17.99;100.00;100630.02;1767311;80;21555;-79
2022/08/23 09:36:24;;;;;;;16.52;14.80;;;;;;;18.02;100.00;100624.52;1773712;80;21092;-79
2022/08/23 09:38:57;;;;;;;18.35;15.53;;;;;;;18.07;100.00;100619.77;1752304;79;21021;-79
2022/08/23 09:41:29;;;;;;;16.27;14.70;;;;;;;18.10;100.00;100622.22;1781427;80;21417;-79
2022/08/23 09:44:01;;;;;;;15.85;14.07;;;;;;;18.11;100.00;100612.45;1779244;79;21021;-79
2022/08/23 09:46:34;;;;;;;18.62;14.25;;;;;;;18.13;100.00;100615.87;1757275;80;20986;-79
2022/08/23 09:49:27;;;;;;;16.73;14.58;;;;;;;18.17;100.00;100614.70;1765859;80;21565;-79
2022/08/23 09:52:00;;;;;;;17.48;14.23;;;;;;;18.20;100.00;100619.80;1766967;80;20989;-79
2022/08/23 09:54:35;;;;;;;17.40;14.05;;;;;;;18.19;100.00;100620.77;1790431;80;20973;-79
2022/08/23 09:57:09;;;;;;;16.62;13.70;;;;;;;18.21;100.00;100617.06;1768647;80;21111;-79
2022/08/23 09:59:51;;;;;;;16.87;13.22;;;;;;;18.22;100.00;100613.45;1774374;80;21023;-79
2022/08/23 10:02:34;;;;;;;15.70;14.00;;;;;;;18.25;100.00;100609.27;1763120;79;21086;-79
2022/08/23 10:05:38;;;;;;;15.48;13.65;;;;;;;18.29;100.00;100611.27;1734346;81;21033;-79
2022/08/23 10:08:07;;;;;;;18.55;14.75;;;;;;;18.31;100.00;100608.01;1762207;81;21066;-79
2022/08/23 10:10:47;;;;;;;16.55;13.85;;;;;;;18.35;100.00;100606.02;1748741;79;21499;-79
2022/08/23 10:13:15;;;;;;;16.07;14.43;;;;;;;18.35;100.00;100613.50;1762392;80;21031;-79
2022/08/23 10:15:57;;;;;;;17.40;14.87;;;;;;;18.36;100.00;100618.33;1764817;81;21973;-79
2022/08/23 10:18:51;;;;;;;16.82;13.85;;;;;;;18.34;100.00;100622.40;1769843;80;21016;-79
2022/08/23 10:21:45;;;;;;;18.75;14.43;;;;;;;18.36;100.00;100623.63;1766366;80;21012;-79
2022/08/23 10:24:27;;;;;;;16.60;14.80;;;;;;;18.39;100.00;100624.28;1749341;81;20949;-79
2022/08/23 10:30:22;;;;;;;18.02;15.03;;;;;;;18.43;100.00;100621.81;1744533;79;21996;-79
2022/08/23 10:33:25;;;;;;;17.98;15.48;;;;;;;18.45;100.00;100629.17;1765554;81;21549;-79
2022/08/23 10:36:24;;;;;;;21.80;16.50;;;;;;;18.44;100.00;100626.63;1752711;79;21019;-79
2022/08/23 10:38:57;;;;;;;17.15;14.95;;;;;;;18.50;100.00;100625.73;1739374;81;21262;-79
2022/08/23 10:41:51;;;;;;;17.30;14.93;;;;;;;18.57;100.00;100631.96;1761006;81;20972;-79
2022/08/23 10:44:45;;;;;;;18.30;14.25;;;;;;;18.57;100.00;100623.55;1762786;80;21120;-79
2022/08/23 10:47:40;;;;;;;17.25;15.45;;;;;;;18.59;100.00;100629.58;1759662;79;21031;-79
2022/08/23 10:50:18;;;;;;;16.60;14.85;;;;;;;18.57;100.00;100631.51;1770077;80;21051;-79
2022/08/23 10:52:54;;;;;;;16.90;15.28;;;;;;;18.59;100.00;100627.41;1756247;80;21001;-79
2022/08/23 10:55:34;;;;;;;19.27;15.20;;;;;;;18.65;100.00;100637.16;1765856;81;21023;-79
2022/08/23 10:58:07;;;;;;;17.55;14.25;;;;;;;18.77;100.00;100630.20;1752521;80;26615;-79
2022/08/23 11:00:36;;;;;;;17.35;15.03;;;;;;;18.99;100.00;100630.07;1734912;80;21046;-79
2022/08/23 11:03:33;;;;;;;14.85;12.85;;;;;;;19.14;100.00;100637.81;1782221;80;21072;-79
2022/08/23 11:06:38;;;;;;;15.48;12.98;;;;;;;19.20;100.00;100631.22;1766746;79;21093;-79
2022/08/23 11:09:22;;;;;;;15.38;12.43;;;;;;;19.26;100.00;100632.60;1738406;80;21034;-78
2022/08/23 11:12:20;;;;;;;13.20;11.53;;;;;;;19.24;100.00;100634.05;1781216;80;21126;-79
2022/08/23 11:15:09;;;;;;;14.05;12.43;;;;;;;19.25;100.00;100632.24;1747991;82;21010;-79
2022/08/23 11:17:47;;;;;;;15.40;11.55;;;;;;;19.25;100.00;100639.73;1751411;80;20986;-79
2022/08/23 11:20:54;;;;;;;13.88;11.55;;;;;;;19.30;100.00;100642.08;1746899;81;21573;-78
2022/08/23 11:23:39;;;;;;;;;;;;;;;19.34;100.00;100637.78;1758198;81;21076;-79
2022/08/23 11:26:24;;;;;;;10.45;9.45;;;;;;;19.32;100.00;100642.83;1732973;81;21787;-79
2022/08/23 11:29:09;;;;;;;12.82;9.88;;;;;;;19.28;100.00;100642.66;1733299;81;22025;-79
2022/08/23 11:32:05;;;;;;;11.35;9.75;;;;;;;19.24;100.00;100638.05;1734584;79;21032;-78
2022/08/23 11:34:41;;;;;;;11.48;10.30;;;;;;;19.20;100.00;100634.36;1736566;81;21112;-79
2022/08/23 11:37:26;;;;;;;10.45;9.45;;;;;;;19.17;100.00;100624.31;1754736;81;21080;-79
2022/08/23 11:40:08;;;;;;;10.65;9.43;;;;;;;19.14;100.00;100625.02;1747590;81;21330;-79
2022/08/23 11:42:47;;;;;;;10.63;9.63;;;;;;;19.14;100.00;100621.88;1733139;81;21009;-79
2022/08/23 11:45:30;;;;;;;11.60;9.50;;;;;;;19.14;100.00;100623.69;1735116;81;21570;-79
2022/08/23 11:48:30;;;;;;;10.48;9.38;;;;;;;19.13;100.00;100624.17;1721549;81;21052;-79
2022/08/23 11:51:11;;;;;;;10.05;9.05;;;;;;;19.12;100.00;100629.12;1743978;81;26898;-79
2022/08/23 11:53:47;;;;;;;10.65;9.10;;;;;;;19.16;100.00;100623.11;1754553;81;21012;-79
2022/08/23 11:56:42;;;;;;;10.63;9.53;;;;;;;19.17;100.00;100627.45;1743948;81;21036;-79
2022/08/23 11:59:49;;;;;;;11.00;8.90;;;;;;;19.19;100.00;100633.52;1766244;80;21070;-79